createdAt,value
2023-04-05T00:01:20.234Z,4.05
2023-04-05T00:03:47.625Z,4.40
2023-04-05T00:06:16.550Z,4.78
2023-04-05T00:08:44.474Z,4.65
2023-04-05T00:11:12.052Z,4.80
2023-04-05T00:13:38.759Z,4.40
2023-04-05T00:16:05.926Z,4.68
2023-04-05T00:18:34.652Z,4.50
2023-04-05T00:21:01.581Z,4.72
2023-04-05T00:23:28.314Z,4.60
2023-04-05T00:25:55.214Z,4.95
2023-04-05T00:28:22.693Z,4.80
2023-04-05T00:30:52.038Z,5.13
2023-04-05T00:33:18.970Z,5.40
2023-04-05T00:35:45.776Z,4.35
2023-04-05T00:38:12.780Z,5.50
2023-04-05T00:40:39.896Z,4.95
2023-04-05T00:43:06.988Z,5.20
2023-04-05T00:45:33.798Z,4.60
2023-04-05T00:48:01.359Z,5.30
2023-04-05T00:50:31.738Z,4.57
2023-04-05T00:52:59.165Z,5.70
2023-04-05T00:55:26.647Z,6.15
2023-04-05T00:57:55.943Z,5.35
2023-04-05T01:00:23.074Z,6.25
2023-04-05T01:02:54.049Z,5.68
2023-04-05T01:05:39.151Z,6.28
2023-04-05T01:08:34.080Z,5.70
2023-04-05T01:11:05.649Z,5.72
2023-04-05T01:13:32.954Z,5.32
2023-04-05T01:15:59.912Z,5.40
2023-04-05T01:18:27.877Z,5.28
2023-04-05T01:21:18.553Z,5.25
2023-04-05T01:24:09.833Z,5.72
2023-04-05T01:26:48.439Z,5.03
2023-04-05T01:29:34.748Z,5.07
2023-04-05T01:32:11.448Z,5.78
2023-04-05T01:35:01.871Z,5.78
2023-04-05T01:37:32.780Z,6.50
2023-04-05T01:40:00.601Z,6.13
2023-04-05T01:42:28.373Z,6.53
2023-04-05T01:44:56.599Z,5.90
2023-04-05T01:47:23.390Z,6.07
2023-04-05T01:49:50.338Z,7.05
2023-04-05T01:52:17.207Z,6.15
2023-04-05T01:54:43.999Z,6.88
2023-04-05T01:57:10.760Z,6.38
2023-04-05T01:59:37.714Z,5.57
2023-04-05T02:02:08.745Z,5.80
2023-04-05T02:04:35.561Z,5.15
2023-04-05T02:07:03.768Z,5.63
2023-04-05T02:09:30.505Z,6.03
2023-04-05T02:11:57.574Z,6.68
2023-04-05T02:14:25.746Z,6.30
2023-04-05T02:16:55.743Z,6.78
2023-04-05T02:19:25.915Z,7.70
2023-04-05T02:21:56.538Z,6.30
2023-04-05T02:24:23.219Z,7.22
2023-04-05T02:26:50.308Z,6.30
2023-04-05T02:29:17.688Z,5.95
2023-04-05T02:31:44.907Z,6.32
2023-04-05T02:34:14.090Z,7.47
2023-04-05T02:36:41.907Z,6.50
2023-04-05T02:39:09.094Z,7.45
2023-04-05T02:41:38.401Z,7.65
2023-04-05T02:44:05.636Z,7.38
2023-04-05T02:46:32.364Z,7.22
2023-04-05T02:49:00.203Z,6.90
2023-04-05T02:51:29.259Z,7.45
2023-04-05T02:53:56.371Z,7.78
2023-04-05T02:56:23.501Z,7.10
2023-04-05T02:58:51.471Z,7.25
2023-04-05T03:01:24.239Z,7.72
2023-04-05T03:03:51.368Z,7.95
2023-04-05T03:06:18.195Z,8.15
2023-04-05T03:08:49.460Z,8.48
2023-04-05T03:11:23.192Z,8.15
2023-04-05T03:13:54.759Z,7.88
2023-04-05T03:16:41.817Z,7.65
2023-04-05T03:19:22.366Z,7.95
2023-04-05T03:24:26.404Z,6.97
2023-04-05T03:26:56.641Z,7.60
2023-04-05T03:29:24.999Z,8.75
2023-04-05T03:31:53.807Z,7.88
2023-04-05T03:34:28.850Z,8.52
2023-04-05T03:36:59.732Z,8.20
2023-04-05T03:39:36.576Z,7.32
2023-04-05T03:42:03.574Z,7.72
2023-04-05T03:44:30.280Z,8.05
2023-04-05T03:46:57.639Z,8.13
2023-04-05T03:49:24.769Z,7.88
2023-04-05T03:51:51.692Z,7.50
2023-04-05T03:54:18.753Z,7.45
2023-04-05T03:56:45.991Z,7.15
2023-04-05T03:59:16.432Z,8.15
2023-04-05T04:01:44.771Z,7.55
2023-04-05T04:04:15.656Z,7.75
2023-04-05T04:06:47.037Z,8.38
2023-04-05T04:09:16.569Z,7.70
2023-04-05T04:11:43.362Z,8.55
2023-04-05T04:14:11.394Z,8.27
2023-04-05T04:16:55.491Z,7.75
2023-04-05T04:19:32.022Z,9.55
2023-04-05T04:22:10.117Z,9.20
2023-04-05T04:25:04.460Z,9.80
2023-04-05T04:28:06.791Z,10.18
2023-04-05T04:31:04.992Z,9.60
2023-04-05T04:33:50.879Z,8.85
2023-04-05T04:36:36.536Z,8.65
2023-04-05T04:39:39.534Z,8.57
2023-04-05T04:42:25.877Z,9.23
2023-04-05T04:45:16.886Z,9.45
2023-04-05T04:47:48.220Z,9.40
2023-04-05T04:50:20.442Z,8.75
2023-04-05T04:52:47.915Z,8.73
2023-04-05T04:55:14.861Z,9.52
2023-04-05T04:57:42.477Z,9.20
2023-04-05T05:00:15.311Z,9.80
2023-04-05T05:02:44.286Z,9.50
2023-04-05T05:05:14.203Z,8.90
2023-04-05T05:07:44.302Z,9.43
2023-04-05T05:10:12.042Z,9.43
2023-04-05T05:12:39.136Z,8.95
2023-04-05T05:15:06.673Z,9.38
2023-04-05T05:17:34.816Z,10.65
2023-04-05T05:20:02.101Z,9.30
2023-04-05T05:22:28.848Z,9.75
2023-04-05T05:24:55.631Z,10.65
2023-04-05T05:27:22.912Z,9.60
2023-04-05T05:29:49.766Z,9.35
2023-04-05T05:32:17.013Z,9.07
2023-04-05T05:34:44.995Z,10.00
2023-04-05T05:37:14.987Z,9.55
2023-04-05T05:39:41.631Z,9.40
2023-04-05T05:42:08.341Z,9.85
2023-04-05T05:44:35.928Z,9.75
2023-04-05T05:47:03.468Z,10.57
2023-04-05T05:49:31.536Z,10.43
2023-04-05T05:51:58.268Z,10.63
2023-04-05T05:54:27.961Z,10.13
2023-04-05T05:56:54.698Z,11.00
2023-04-05T05:59:21.791Z,10.77
2023-04-05T06:01:51.288Z,11.15
2023-04-05T06:04:19.539Z,10.23
2023-04-05T06:06:47.756Z,9.77
2023-04-05T06:09:15.727Z,10.15
2023-04-05T06:11:55.770Z,9.93
2023-04-05T06:14:24.576Z,10.15
2023-04-05T06:16:51.559Z,11.63
2023-04-05T06:19:18.714Z,10.93
2023-04-05T06:21:45.766Z,10.65
2023-04-05T06:24:12.519Z,11.40
2023-04-05T06:26:39.339Z,11.25
2023-04-05T06:29:06.697Z,10.73
2023-04-05T06:31:35.785Z,11.15
2023-04-05T06:34:03.099Z,10.70
2023-04-05T06:36:34.763Z,11.13
2023-04-05T06:39:01.785Z,9.93
2023-04-05T06:41:35.016Z,10.05
2023-04-05T06:44:02.017Z,9.40
2023-04-05T06:46:29.176Z,9.90
2023-04-05T06:48:56.050Z,9.23
2023-04-05T06:51:22.750Z,9.60
2023-04-05T06:53:52.818Z,8.77
2023-04-05T06:56:19.783Z,8.50
2023-04-05T06:58:46.909Z,9.25
2023-04-05T07:01:13.836Z,9.70
2023-04-05T07:03:40.671Z,9.43
2023-04-05T07:06:10.000Z,8.75
2023-04-05T07:08:36.748Z,9.55
2023-04-05T07:11:06.980Z,8.88
2023-04-05T07:13:33.942Z,9.60
2023-04-05T07:16:02.382Z,8.55
2023-04-05T07:18:30.166Z,8.80
2023-04-05T07:21:01.694Z,8.77
2023-04-05T07:23:28.629Z,8.00
2023-04-05T07:26:01.169Z,8.18
2023-04-05T07:28:27.811Z,8.00
2023-04-05T07:30:54.526Z,7.40
2023-04-05T07:33:21.435Z,7.65
2023-04-05T07:35:57.558Z,7.72
2023-04-05T07:38:24.554Z,7.20
2023-04-05T07:40:51.829Z,6.60
2023-04-05T07:43:19.279Z,6.78
2023-04-05T07:45:46.466Z,7.00
2023-04-05T07:48:13.230Z,6.65
2023-04-05T07:50:41.203Z,6.10
2023-04-05T07:53:08.243Z,6.10
2023-04-05T07:55:38.278Z,6.55
2023-04-05T07:58:05.156Z,5.63
2023-04-05T08:00:32.038Z,5.70
2023-04-05T08:03:01.820Z,5.20
2023-04-05T08:05:29.264Z,5.22
2023-04-05T08:07:58.143Z,4.72
2023-04-05T08:10:25.613Z,4.82
2023-04-05T08:12:52.640Z,5.25
2023-04-05T08:15:19.503Z,4.30
2023-04-05T08:17:46.279Z,5.05
2023-04-05T08:20:13.752Z,4.78
2023-04-05T08:22:41.605Z,4.05
2023-04-05T08:25:09.042Z,4.47
2023-04-05T08:27:35.829Z,3.60
2023-04-05T08:30:05.136Z,4.28
2023-04-05T08:32:33.935Z,3.92
2023-04-05T08:35:01.205Z,4.55
2023-04-05T08:37:28.227Z,4.28
2023-04-05T08:39:55.418Z,4.03
2023-04-05T08:42:34.338Z,4.18
2023-04-05T08:45:04.708Z,3.80
2023-04-05T08:47:32.232Z,4.00
2023-04-05T08:50:01.766Z,4.28
2023-04-05T08:52:32.077Z,4.82
2023-04-05T08:54:58.897Z,3.83
2023-04-05T08:57:29.696Z,4.53
2023-04-05T08:59:57.360Z,4.90
2023-04-05T09:02:28.566Z,4.15
2023-04-05T09:04:56.810Z,3.25
2023-04-05T09:07:24.442Z,3.80
2023-04-05T09:09:53.663Z,3.80
2023-04-05T09:12:24.750Z,3.85
2023-04-05T09:14:52.346Z,3.92
2023-04-05T09:17:19.564Z,3.28
2023-04-05T09:19:46.287Z,3.78
2023-04-05T09:22:14.007Z,3.83
2023-04-05T09:24:43.853Z,3.83
2023-04-05T09:27:18.999Z,2.70
2023-04-05T09:29:52.585Z,3.17
2023-04-05T09:32:21.055Z,2.88
2023-04-05T09:34:48.222Z,3.50
2023-04-05T09:37:27.473Z,3.50
2023-04-05T09:40:04.250Z,3.47
2023-04-05T09:42:42.868Z,3.35
2023-04-05T09:45:10.165Z,3.33
2023-04-05T09:47:59.934Z,3.63
2023-04-05T09:50:27.078Z,3.95
2023-04-05T09:53:15.972Z,3.60
2023-04-05T09:55:43.895Z,3.20
2023-04-05T09:58:32.682Z,3.83
2023-04-05T10:01:06.731Z,3.67
2023-04-05T10:03:50.383Z,4.35
2023-04-05T10:06:17.645Z,3.30
2023-04-05T10:08:48.668Z,4.22
2023-04-05T10:11:18.418Z,4.50
2023-04-05T10:13:46.046Z,3.92
2023-04-05T10:16:19.840Z,4.13
2023-04-05T10:18:51.358Z,2.85
2023-04-05T10:21:23.633Z,3.10
2023-04-05T10:24:16.468Z,2.65
2023-04-05T10:31:56.864Z,3.03
2023-04-05T10:35:02.000Z,2.47
2023-04-05T10:37:49.904Z,2.70
2023-04-05T10:40:17.874Z,3.70
2023-04-05T10:42:46.617Z,3.10
2023-04-05T10:45:17.929Z,2.92
2023-04-05T10:47:54.306Z,3.17
2023-04-05T10:50:23.536Z,3.17
2023-04-05T10:52:52.293Z,3.17
2023-04-05T10:55:19.609Z,3.15
2023-04-05T10:57:47.963Z,3.40
2023-04-05T11:00:17.419Z,3.17
2023-04-05T11:02:44.664Z,2.72
2023-04-05T11:05:31.266Z,2.70
2023-04-05T11:08:05.420Z,2.80
2023-04-05T11:10:35.445Z,3.08
2023-04-05T11:13:02.588Z,3.70
2023-04-05T11:15:33.468Z,2.80
2023-04-05T11:18:11.582Z,2.95
2023-04-05T11:20:57.550Z,2.60
2023-04-05T11:23:25.445Z,3.30
2023-04-05T11:25:55.073Z,3.30
2023-04-05T11:28:30.537Z,3.30
2023-04-05T11:30:58.960Z,2.72
2023-04-05T11:33:39.565Z,3.08
2023-04-05T11:36:06.885Z,3.38
2023-04-05T11:38:34.248Z,3.40
2023-04-05T11:41:21.143Z,3.38
2023-04-05T11:43:48.298Z,3.97
2023-04-05T11:46:15.622Z,3.50
2023-04-05T11:48:42.607Z,3.03
2023-04-05T11:51:10.995Z,3.15
2023-04-05T11:53:38.639Z,2.83
2023-04-05T11:56:12.889Z,3.35
2023-04-05T11:58:40.069Z,3.28
2023-04-05T12:01:07.848Z,3.25
2023-04-05T12:03:38.187Z,3.47
2023-04-05T12:06:07.637Z,3.83
2023-04-05T12:08:51.269Z,3.28
2023-04-05T12:11:28.231Z,2.78
2023-04-05T12:13:56.800Z,3.30
2023-04-05T12:16:23.869Z,3.40
2023-04-05T12:18:59.580Z,2.80
2023-04-05T12:21:29.977Z,3.05
2023-04-05T12:23:57.394Z,2.70
2023-04-05T12:26:24.390Z,2.60
2023-04-05T12:28:56.585Z,3.40
2023-04-05T12:31:46.307Z,3.00
2023-04-05T12:34:14.785Z,2.75
2023-04-05T12:36:46.405Z,2.75
2023-04-05T12:39:15.805Z,3.03
2023-04-05T12:41:42.746Z,3.53
2023-04-05T12:44:15.722Z,3.15
2023-04-05T12:46:47.702Z,2.67
2023-04-05T12:49:19.357Z,2.85
2023-04-05T12:51:47.467Z,2.35
2023-04-05T12:54:36.674Z,2.85
2023-04-05T12:57:04.615Z,2.80
2023-04-05T12:59:31.703Z,3.20
2023-04-05T13:01:58.572Z,3.20
2023-04-05T13:04:26.895Z,2.97
2023-04-05T13:06:54.970Z,3.00
2023-04-05T13:09:21.711Z,3.00
2023-04-05T13:11:48.436Z,2.42
2023-04-05T13:14:15.417Z,2.40
2023-04-05T13:16:42.360Z,2.88
2023-04-05T13:19:09.218Z,3.00
2023-04-05T13:21:35.976Z,2.90
2023-04-05T13:24:02.889Z,3.15
2023-04-05T13:26:29.855Z,2.80
2023-04-05T13:28:56.632Z,2.45
2023-04-05T13:31:23.480Z,2.88
2023-04-05T13:33:50.329Z,2.70
2023-04-05T13:36:17.188Z,2.90
2023-04-05T13:38:43.960Z,2.97
2023-04-05T13:41:10.788Z,2.63
2023-04-05T13:43:37.652Z,2.17
2023-04-05T13:46:04.693Z,2.75
2023-04-05T13:48:31.442Z,2.60
2023-04-05T13:50:58.239Z,2.20
2023-04-05T13:53:26.674Z,2.65
2023-04-05T13:55:55.130Z,2.70
2023-04-05T13:58:21.831Z,2.55
2023-04-05T14:00:48.578Z,2.70
2023-04-05T14:03:15.644Z,2.90
2023-04-05T14:05:42.554Z,3.08
2023-04-05T14:08:09.295Z,2.72
2023-04-05T14:10:36.051Z,2.83
2023-04-05T14:13:02.757Z,2.50
2023-04-05T14:15:29.972Z,2.25
2023-04-05T14:17:56.758Z,2.67
2023-04-05T14:20:23.536Z,2.83
2023-04-05T14:22:51.035Z,2.53
2023-04-05T14:25:19.240Z,2.33
2023-04-05T14:27:46.121Z,2.80
2023-04-05T14:30:13.379Z,2.78
2023-04-05T14:32:40.289Z,2.80
2023-04-05T14:35:07.723Z,2.60
2023-04-05T14:37:34.518Z,2.75
2023-04-05T14:40:01.325Z,3.25
2023-04-05T14:42:41.085Z,2.58
2023-04-05T14:45:15.187Z,2.63
2023-04-05T14:47:41.953Z,2.78
2023-04-05T14:50:09.165Z,2.47
2023-04-05T14:52:36.213Z,2.40
2023-04-05T14:55:03.226Z,2.53
2023-04-05T14:57:30.047Z,2.55
2023-04-05T14:59:56.894Z,2.63
2023-04-05T15:02:23.750Z,2.90
2023-04-05T15:04:50.618Z,2.50
2023-04-05T15:07:17.468Z,2.60
2023-04-05T15:09:44.242Z,2.67
2023-04-05T15:12:11.095Z,2.83
2023-04-05T15:14:37.931Z,2.92
2023-04-05T15:17:04.826Z,2.70
2023-04-05T15:19:31.666Z,2.45
2023-04-05T15:21:58.667Z,2.90
2023-04-05T15:24:25.527Z,2.53
2023-04-05T15:26:52.351Z,3.00
2023-04-05T15:29:19.230Z,3.08
2023-04-05T15:31:46.155Z,3.05
2023-04-05T15:34:13.122Z,3.50
2023-04-05T15:36:39.905Z,2.88
2023-04-05T15:39:07.236Z,3.00
2023-04-05T15:41:34.999Z,3.55
2023-04-05T15:44:02.420Z,2.80
2023-04-05T15:46:29.702Z,2.40
2023-04-05T15:48:56.705Z,2.70
2023-04-05T15:51:23.522Z,2.85
2023-04-05T15:53:51.070Z,2.70
2023-04-05T15:56:18.323Z,2.50
2023-04-05T15:58:45.294Z,2.90
2023-04-05T16:01:12.393Z,3.00
2023-04-05T16:03:39.425Z,2.70
2023-04-05T16:06:06.588Z,2.92
2023-04-05T16:08:33.368Z,2.70
2023-04-05T16:11:00.228Z,2.70
2023-04-05T16:13:27.504Z,2.90
2023-04-05T16:15:54.361Z,2.60
2023-04-05T16:18:21.369Z,2.83
2023-04-05T16:20:48.581Z,2.85
2023-04-05T16:23:15.588Z,3.05
2023-04-05T16:25:42.592Z,2.95
2023-04-05T16:28:09.625Z,3.00
2023-04-05T16:30:36.906Z,3.13
2023-04-05T16:33:03.882Z,3.05
2023-04-05T16:35:31.218Z,2.95
2023-04-05T16:37:58.548Z,3.45
2023-04-05T16:40:25.718Z,2.63
2023-04-05T16:42:54.167Z,2.70
2023-04-05T16:45:21.494Z,3.05
2023-04-05T16:47:48.462Z,2.47
2023-04-05T16:50:15.377Z,2.88
2023-04-05T16:52:44.980Z,3.33
2023-04-05T16:55:11.948Z,2.95
2023-04-05T16:57:38.811Z,2.97
2023-04-05T17:00:06.231Z,3.05
2023-04-05T17:02:33.148Z,2.83
2023-04-05T17:04:59.908Z,2.70
2023-04-05T17:07:27.025Z,2.92
2023-04-05T17:09:54.038Z,3.05
2023-04-05T17:12:20.929Z,3.03
2023-04-05T17:14:47.640Z,2.47
2023-04-05T17:17:14.441Z,3.17
2023-04-05T17:19:42.115Z,2.83
2023-04-05T17:22:08.989Z,2.90
2023-04-05T17:24:38.633Z,3.85
2023-04-05T17:27:05.511Z,2.92
2023-04-05T17:29:32.472Z,3.50
2023-04-05T17:31:59.293Z,3.72
2023-04-05T17:34:26.103Z,3.13
2023-04-05T17:36:53.103Z,2.65
2023-04-05T17:39:19.901Z,3.20
2023-04-05T17:41:46.829Z,3.25
2023-04-05T17:44:14.711Z,3.80
2023-04-05T17:46:48.422Z,3.30
2023-04-05T17:49:20.975Z,3.10
2023-04-05T17:51:48.339Z,3.45
2023-04-05T17:54:15.469Z,3.38
2023-04-05T17:56:42.252Z,2.95
2023-04-05T17:59:09.361Z,3.20
2023-04-05T18:01:37.850Z,3.42
2023-04-05T18:04:05.825Z,3.33
2023-04-05T18:06:33.039Z,3.55
2023-04-05T18:09:00.314Z,3.38
2023-04-05T18:11:27.107Z,3.85
2023-04-05T18:13:53.952Z,4.10
2023-04-05T18:16:21.494Z,3.55
2023-04-05T18:18:48.645Z,3.60
2023-04-05T18:21:15.403Z,3.60
2023-04-05T18:23:43.246Z,3.50
2023-04-05T18:26:10.083Z,3.60
2023-04-05T18:28:37.183Z,3.35
2023-04-05T18:31:04.012Z,3.40
2023-04-05T18:33:31.212Z,3.67
2023-04-05T18:35:58.093Z,3.45
2023-04-05T18:38:24.941Z,3.95
2023-04-05T18:41:00.765Z,4.07
2023-04-05T18:43:27.680Z,3.58
2023-04-05T18:45:54.895Z,3.08
2023-04-05T18:48:24.473Z,3.70
2023-04-05T18:50:53.738Z,3.53
2023-04-05T18:53:21.959Z,3.95
2023-04-05T18:55:52.807Z,3.80
2023-04-05T18:58:20.707Z,3.92
2023-04-05T19:00:47.436Z,3.70
2023-04-05T19:03:15.760Z,3.60
2023-04-05T19:05:47.940Z,3.80
2023-04-05T19:08:14.774Z,4.43
2023-04-05T19:10:42.109Z,3.53
2023-04-05T19:13:08.826Z,3.53
2023-04-05T19:15:38.124Z,3.78
2023-04-05T19:18:05.021Z,4.10
2023-04-05T19:20:31.762Z,3.88
2023-04-05T19:22:58.620Z,3.53
2023-04-05T19:25:26.355Z,3.53
2023-04-05T19:27:53.135Z,3.92
2023-04-05T19:30:19.904Z,3.33
2023-04-05T19:32:46.610Z,4.35
2023-04-05T19:35:13.423Z,3.72
2023-04-05T19:37:40.330Z,3.50
2023-04-05T19:40:07.850Z,3.38
2023-04-05T19:42:34.797Z,4.00
2023-04-05T19:45:01.727Z,3.83
2023-04-05T19:47:29.081Z,4.28
2023-04-05T19:50:00.477Z,4.30
2023-04-05T19:52:48.259Z,3.67
2023-04-05T19:55:36.188Z,3.88
2023-04-05T19:58:09.208Z,3.78
2023-04-05T20:00:37.314Z,3.97
2023-04-05T20:03:24.739Z,3.70
2023-04-05T20:05:51.588Z,3.75
2023-04-05T20:08:19.019Z,3.50
2023-04-05T20:10:47.676Z,4.03
2023-04-05T20:13:17.606Z,3.95
2023-04-05T20:15:51.728Z,3.70
2023-04-05T20:18:26.924Z,3.45
2023-04-05T20:20:54.684Z,3.47
2023-04-05T20:23:22.560Z,3.50
2023-04-05T20:25:51.311Z,3.20
2023-04-05T20:28:40.349Z,3.90
2023-04-05T20:31:21.052Z,3.83
2023-04-05T20:33:56.747Z,3.60
2023-04-05T20:36:33.711Z,3.25
2023-04-05T20:39:02.260Z,3.10
2023-04-05T20:41:30.106Z,3.58
2023-04-05T20:43:57.845Z,3.17
2023-04-05T20:46:27.732Z,3.97
2023-04-05T20:48:58.449Z,3.35
2023-04-05T20:51:25.696Z,3.70
2023-04-05T20:53:52.799Z,4.57
2023-04-05T20:56:19.649Z,4.00
2023-04-05T20:58:46.575Z,3.55
2023-04-05T21:01:13.532Z,3.72
2023-04-05T21:03:41.922Z,4.00
2023-04-05T21:06:10.301Z,3.10
2023-04-05T21:08:38.560Z,4.70
2023-04-05T21:11:06.584Z,4.55
2023-04-05T21:13:33.696Z,4.03
2023-04-05T21:16:00.820Z,4.70
2023-04-05T21:18:28.002Z,4.20
2023-04-05T21:20:55.645Z,4.80
2023-04-05T21:23:28.082Z,4.32
2023-04-05T21:25:56.349Z,4.18
2023-04-05T21:28:24.665Z,3.88
2023-04-05T21:30:51.957Z,4.53
2023-04-05T21:33:19.662Z,4.57
2023-04-05T21:35:46.616Z,4.10
2023-04-05T21:38:15.630Z,4.13
2023-04-05T21:40:44.511Z,4.63
2023-04-05T21:43:13.009Z,4.90
2023-04-05T21:45:39.945Z,4.82
2023-04-05T21:48:07.049Z,5.05
2023-04-05T21:50:33.944Z,4.40
2023-04-05T21:53:00.981Z,5.18
2023-04-05T21:55:27.809Z,5.22
2023-04-05T21:57:54.540Z,4.80
2023-04-05T22:00:21.521Z,5.57
2023-04-05T22:02:48.493Z,4.90
2023-04-05T22:05:34.511Z,4.50
2023-04-05T22:08:05.966Z,4.05
2023-04-05T22:10:33.318Z,4.82
2023-04-05T22:13:00.136Z,4.30
2023-04-05T22:15:26.965Z,4.30
2023-04-05T22:17:53.719Z,4.53
2023-04-05T22:20:20.728Z,4.35
2023-04-05T22:22:47.741Z,4.80
2023-04-05T22:25:14.491Z,4.63
2023-04-05T22:27:41.301Z,4.57
2023-04-05T22:30:08.569Z,5.00
2023-04-05T22:32:35.660Z,5.25
2023-04-05T22:35:04.773Z,5.15
2023-04-05T22:37:35.836Z,4.82
2023-04-05T22:40:04.271Z,4.60
2023-04-05T22:42:31.139Z,4.90
2023-04-05T22:44:57.932Z,4.07
2023-04-05T22:47:24.722Z,4.50
2023-04-05T22:49:52.223Z,4.50
2023-04-05T22:52:19.062Z,4.65
2023-04-05T22:54:46.035Z,4.55
2023-04-05T22:57:13.046Z,4.65
2023-04-05T22:59:39.936Z,4.35
2023-04-05T23:02:06.794Z,5.03
2023-04-05T23:04:33.631Z,4.80
2023-04-05T23:07:00.505Z,5.00
2023-04-05T23:09:27.508Z,5.28
2023-04-05T23:11:54.275Z,4.78
2023-04-05T23:14:21.544Z,4.78
2023-04-05T23:16:48.305Z,5.10
2023-04-05T23:19:15.288Z,4.47
2023-04-05T23:21:42.143Z,4.80
2023-04-05T23:24:10.665Z,5.65
2023-04-05T23:26:37.478Z,4.20
2023-04-05T23:29:04.273Z,4.93
2023-04-05T23:31:31.035Z,5.35
2023-04-05T23:33:57.902Z,4.95
2023-04-05T23:36:24.773Z,4.00
2023-04-05T23:38:51.593Z,5.10
2023-04-05T23:41:18.467Z,4.88
2023-04-05T23:43:45.960Z,4.43
2023-04-05T23:46:12.753Z,4.70
2023-04-05T23:48:39.635Z,4.80
2023-04-05T23:51:06.345Z,4.03
2023-04-05T23:53:33.079Z,4.88
2023-04-05T23:55:59.887Z,4.50
2023-04-05T23:58:26.661Z,4.85
